Hangzhou Xiaoshan International Airport
ZSHC : rendu visible

Aérodrome :











RETROUVEZ-NOUS SUR...

 
LOGIN :

S'inscrire | Disclaimer

   EN    FR    IT 

 









Légende :    VFR   VFR Marginal   IFR   IFR Intensif   IFR Très Intensif
Visi : 
Plafond : 
>= 8 km
>= 3000ft
5 à 8 km
1000 à 3000 ft
1500m à 5 km
500 à 1000 ft
800 à 1500m
200 à 500 ft
< 800m
< 200 ft
Symboles :   Orages  Brouillard  Fortes neiges  Fortes précipitations  Vent > 20 kt






- Altitude de l'aérodrome : 23 ft
- Code IATA : HGH


ZSHC - Hangzhou Xiaoshan International

DERNIER METAR :
  • 040300Z 30002MPS 240V030 7000 FEW040 16/07 Q1025 NOSIG

METARs EXPIRÉS :
  • 040230Z 29003MPS 230V330 6000 NSC 16/07 Q1025 NOSIG
  • 040200Z 29002MPS 240V350 6000 NSC 15/08 Q1025 NOSIG
  • 040130Z 31002MPS 230V020 6000 NSC 15/09 Q1025 NOSIG
  • 040100Z 26002MPS 220V310 6000 NSC 13/09 Q1025 NOSIG
  • 040030Z 23002MPS 6000 NSC 12/09 Q1025 NOSIG

TAF TAF ZSHC
Valide du 04 à 00h jusqu'au 05 à 00h UTC


032111Z 0400/0424 02003MPS 3000 BR NSC TX20/0406Z TN09/0421Z



MET'MAP, la Météo Aéronautique d'un coup d'oeil ! - Copyright ORBIFLY Décembre 2007 - Disclaimer

ORBIFLY MET'MAP TEAM :

Programmation & Développement : Alexandra Zaïnal
Sur une idée originale de : Baudouin d'Aumeries
Assistance à la programmation : Marc-Olivier Méhu
Soutien technique & logistique : Manuel Goepfert

Contact : metmap@orbifly.com




SOURCES & CREDITS :

   NOAA       Earth
Advisory